Time;durP1;ratioP1;P1;durP2;ratioP2;P2;SDS_P1;SDS_P2;PMS_P1;PMS_P2;Temp;Humidity;BMP_temperature;BMP_pressure;BME280_temperature;BME280_humidity;BME280_pressure;Samples;Min_cycle;Max_cycle;Signal;HPM_P1;HPM_P2
2022/11/09 00:00:10;;;;;;;26.97;15.40;;;;;;;;;;5095514;28;21223;-70
2022/11/09 00:02:37;;;;;;;27.30;16.23;;;;;;;;;;5093119;28;20503;-70
2022/11/09 00:05:04;;;;;;;29.83;18.60;;;;;;;;;;5094954;28;20772;-70
2022/11/09 00:07:31;;;;;;;27.57;17.40;;;;;;;;;;5095025;28;20986;-70
2022/11/09 00:10:00;;;;;;;29.70;18.93;;;;;;;;;;5095143;28;20848;-70
2022/11/09 00:12:27;;;;;;;58.97;30.60;;;;;;;;;;5095305;28;20451;-70
2022/11/09 00:14:54;;;;;;;68.07;33.50;;;;;;;;;;5094242;28;20458;-70
2022/11/09 00:17:21;;;;;;;54.03;25.40;;;;;;;;;;5094978;28;20471;-70
2022/11/09 00:19:48;;;;;;;47.23;24.03;;;;;;;;;;5094826;28;20478;-70
2022/11/09 00:22:16;;;;;;;37.83;18.77;;;;;;;;;;5095071;28;20527;-70
2022/11/09 00:24:43;;;;;;;31.50;17.73;;;;;;;;;;5094353;28;20465;-70
2022/11/09 00:27:11;;;;;;;23.57;15.00;;;;;;;;;;5094853;28;20825;-70
2022/11/09 00:29:38;;;;;;;23.73;15.13;;;;;;;;;;5094820;28;20478;-70
2022/11/09 00:32:06;;;;;;;29.97;14.70;;;;;;;;;;5092137;28;20773;-70
2022/11/09 00:34:33;;;;;;;35.27;17.10;;;;;;;;;;5093787;28;20431;-70
2022/11/09 00:37:00;;;;;;;28.93;15.53;;;;;;;;;;5089945;28;20478;-70
2022/11/09 00:39:27;;;;;;;21.07;14.43;;;;;;;;;;5094849;28;20435;-70
2022/11/09 00:41:54;;;;;;;24.97;14.20;;;;;;;;;;5093172;28;20455;-69
2022/11/09 00:44:23;;;;;;;18.60;12.53;;;;;;;;;;5094044;28;20439;-70
2022/11/09 00:46:50;;;;;;;30.80;13.20;;;;;;;;;;5094699;28;20470;-70
2022/11/09 00:49:17;;;;;;;26.97;12.43;;;;;;;;;;5094543;28;20478;-70
2022/11/09 00:51:44;;;;;;;22.80;13.50;;;;;;;;;;5094242;28;20454;-70
2022/11/09 00:54:12;;;;;;;36.97;12.63;;;;;;;;;;5093601;28;20457;-69
2022/11/09 00:56:39;;;;;;;22.70;11.40;;;;;;;;;;5093915;28;20817;-70
2022/11/09 00:59:06;;;;;;;39.93;13.70;;;;;;;;;;5094369;28;20447;-70
2022/11/09 01:01:34;;;;;;;100.47;18.37;;;;;;;;;;5094321;28;20447;-70
2022/11/09 01:04:01;;;;;;;67.70;15.23;;;;;;;;;;5093469;28;20457;-70
2022/11/09 01:06:29;;;;;;;37.00;14.20;;;;;;;;;;5092181;28;20475;-70
2022/11/09 01:08:56;;;;;;;49.93;15.10;;;;;;;;;;5094268;28;20471;-70
2022/11/09 01:11:23;;;;;;;64.40;16.00;;;;;;;;;;5092028;28;20457;-70
2022/11/09 01:13:50;;;;;;;52.27;15.47;;;;;;;;;;5093403;28;20459;-70
2022/11/09 01:16:19;;;;;;;112.90;19.17;;;;;;;;;;5094005;28;20467;-70
2022/11/09 01:18:47;;;;;;;80.37;14.33;;;;;;;;;;5093629;28;20454;-70
2022/11/09 01:21:15;;;;;;;55.87;13.43;;;;;;;;;;5093709;28;20450;-70
2022/11/09 01:23:43;;;;;;;214.10;22.77;;;;;;;;;;5092953;28;20486;-70
2022/11/09 01:26:11;;;;;;;170.77;18.37;;;;;;;;;;5093821;28;21002;-70
2022/11/09 01:28:38;;;;;;;176.67;18.70;;;;;;;;;;5093560;28;20482;-70
2022/11/09 01:31:07;;;;;;;100.97;14.80;;;;;;;;;;5093485;28;20453;-70
2022/11/09 01:33:35;;;;;;;184.80;19.73;;;;;;;;;;5093327;28;20450;-70
2022/11/09 01:36:04;;;;;;;123.67;19.70;;;;;;;;;;5093193;28;20466;-70
2022/11/09 01:38:31;;;;;;;131.80;15.97;;;;;;;;;;5091947;28;20813;-70
2022/11/09 01:40:58;;;;;;;205.03;20.57;;;;;;;;;;5091643;28;20450;-69
2022/11/09 01:43:25;;;;;;;112.23;17.00;;;;;;;;;;5092199;28;20435;-69
2022/11/09 01:45:54;;;;;;;48.20;10.87;;;;;;;;;;5091244;28;20478;-70
2022/11/09 01:48:24;;;;;;;124.87;17.60;;;;;;;;;;5093554;28;20435;-70
2022/11/09 01:50:54;;;;;;;136.13;16.60;;;;;;;;;;5093354;28;20427;-70
2022/11/09 01:53:25;;;;;;;93.27;14.20;;;;;;;;;;5093170;28;20458;-69
2022/11/09 01:55:53;;;;;;;71.10;13.63;;;;;;;;;;5093260;28;20982;-70
2022/11/09 01:58:23;;;;;;;57.23;15.03;;;;;;;;;;5093323;28;20450;-69
2022/11/09 02:00:51;;;;;;;198.07;20.90;;;;;;;;;;5093225;28;20454;-69
2022/11/09 02:03:22;;;;;;;175.10;20.40;;;;;;;;;;5093060;28;20952;-69
2022/11/09 02:05:50;;;;;;;67.47;13.23;;;;;;;;;;5092854;28;20989;-69
2022/11/09 02:08:18;;;;;;;140.33;19.73;;;;;;;;;;5093011;28;20454;-70
2022/11/09 02:10:50;;;;;;;53.50;14.70;;;;;;;;;;5093025;28;20454;-70
2022/11/09 02:13:18;;;;;;;116.60;17.47;;;;;;;;;;5092637;28;20435;-70
2022/11/09 02:15:46;;;;;;;45.17;14.67;;;;;;;;;;5091024;28;20470;-69
2022/11/09 02:18:13;;;;;;;62.57;15.20;;;;;;;;;;5092591;28;20435;-70
2022/11/09 02:20:49;;;;;;;95.50;16.80;;;;;;;;;;5091539;28;20446;-70
2022/11/09 02:23:16;;;;;;;35.63;13.40;;;;;;;;;;5092683;28;20441;-69
2022/11/09 02:25:46;;;;;;;190.47;35.30;;;;;;;;;;5092061;28;20477;-70
2022/11/09 02:28:13;;;;;;;63.90;15.00;;;;;;;;;;5092857;28;20450;-70
2022/11/09 02:30:40;;;;;;;127.77;18.90;;;;;;;;;;5092870;28;20833;-70
2022/11/09 02:33:07;;;;;;;73.43;17.47;;;;;;;;;;5092583;28;20456;-70
2022/11/09 02:35:34;;;;;;;202.00;29.27;;;;;;;;;;5092142;28;20454;-70
2022/11/09 02:38:03;;;;;;;66.00;16.63;;;;;;;;;;5090731;28;20943;-70
2022/11/09 02:40:32;;;;;;;138.20;26.37;;;;;;;;;;5092729;28;20462;-70
2022/11/09 02:43:00;;;;;;;294.47;26.47;;;;;;;;;;5091940;28;21001;-70
2022/11/09 02:45:27;;;;;;;252.90;22.13;;;;;;;;;;5092208;28;20435;-69
2022/11/09 02:47:54;;;;;;;162.67;19.27;;;;;;;;;;5092732;28;20818;-70
2022/11/09 02:50:22;;;;;;;129.50;16.63;;;;;;;;;;5092501;28;20482;-69
2022/11/09 02:52:49;;;;;;;71.77;12.90;;;;;;;;;;5091070;28;20948;-70
2022/11/09 02:55:18;;;;;;;87.50;13.63;;;;;;;;;;5092598;28;20438;-69
2022/11/09 02:57:45;;;;;;;84.57;12.93;;;;;;;;;;5094865;28;20446;-70
2022/11/09 03:00:12;;;;;;;124.80;15.63;;;;;;;;;;5096808;28;20443;-70
2022/11/09 03:02:39;;;;;;;211.67;20.23;;;;;;;;;;5096205;28;20457;-70
2022/11/09 03:05:07;;;;;;;74.37;13.03;;;;;;;;;;5096234;28;20536;-70
2022/11/09 03:07:34;;;;;;;46.43;10.63;;;;;;;;;;5096367;28;20474;-70
2022/11/09 03:10:01;;;;;;;50.10;10.07;;;;;;;;;;5096557;28;20603;-70
2022/11/09 03:12:30;;;;;;;140.43;19.23;;;;;;;;;;5096610;28;20472;-70
2022/11/09 03:14:57;;;;;;;57.33;14.40;;;;;;;;;;5095432;28;20523;-70
2022/11/09 03:17:24;;;;;;;184.53;22.87;;;;;;;;;;5096086;28;20538;-70
2022/11/09 03:19:51;;;;;;;108.30;15.07;;;;;;;;;;5096098;28;20446;-70
2022/11/09 03:22:19;;;;;;;133.10;15.33;;;;;;;;;;5096363;28;20446;-70
2022/11/09 03:24:46;;;;;;;53.27;11.17;;;;;;;;;;5095727;28;20450;-70
2022/11/09 03:27:13;;;;;;;144.10;19.87;;;;;;;;;;5094351;28;20832;-70
2022/11/09 03:29:42;;;;;;;45.00;11.80;;;;;;;;;;5096090;28;20493;-70
2022/11/09 03:32:09;;;;;;;112.87;14.70;;;;;;;;;;5096101;28;20808;-70
2022/11/09 03:34:36;;;;;;;42.47;10.70;;;;;;;;;;5095326;28;20818;-70
2022/11/09 03:37:03;;;;;;;92.83;15.37;;;;;;;;;;5091709;28;20998;-70
2022/11/09 03:39:30;;;;;;;57.10;11.80;;;;;;;;;;5096001;28;20427;-70
2022/11/09 03:41:57;;;;;;;51.23;10.80;;;;;;;;;;5094698;28;20461;-70
2022/11/09 03:44:25;;;;;;;46.17;12.50;;;;;;;;;;5095052;28;20457;-70
2022/11/09 03:46:53;;;;;;;37.83;10.90;;;;;;;;;;5095848;28;20470;-70
2022/11/09 03:49:22;;;;;;;48.57;11.20;;;;;;;;;;5095845;28;20477;-70
2022/11/09 03:51:50;;;;;;;68.93;13.13;;;;;;;;;;5095311;28;20458;-70
2022/11/09 03:54:17;;;;;;;26.50;9.17;;;;;;;;;;5095185;28;20824;-70
2022/11/09 03:56:44;;;;;;;26.97;9.87;;;;;;;;;;5095493;28;20979;-70
2022/11/09 03:59:11;;;;;;;121.23;17.07;;;;;;;;;;5095351;28;20454;-70
2022/11/09 04:01:38;;;;;;;57.17;12.37;;;;;;;;;;5095579;28;20446;-70
2022/11/09 04:04:07;;;;;;;139.03;19.40;;;;;;;;;;5094962;28;20450;-70
2022/11/09 04:06:34;;;;;;;126.17;17.17;;;;;;;;;;5092979;28;20836;-70
2022/11/09 04:09:01;;;;;;;199.93;19.43;;;;;;;;;;5094909;28;20904;-70
2022/11/09 04:11:28;;;;;;;64.77;14.73;;;;;;;;;;5093217;28;20447;-70
2022/11/09 04:13:55;;;;;;;269.27;26.37;;;;;;;;;;5094393;28;20458;-70
2022/11/09 04:16:22;;;;;;;43.07;9.50;;;;;;;;;;5094901;28;20474;-70
2022/11/09 04:18:50;;;;;;;66.93;11.10;;;;;;;;;;5095160;28;20458;-69
2022/11/09 04:21:18;;;;;;;139.77;16.23;;;;;;;;;;5095403;28;20451;-69
2022/11/09 04:23:45;;;;;;;70.57;12.77;;;;;;;;;;5094269;28;20473;-70
2022/11/09 04:26:12;;;;;;;129.47;15.07;;;;;;;;;;5094645;28;20477;-70
2022/11/09 04:28:39;;;;;;;59.70;10.67;;;;;;;;;;5095121;28;20450;-69
2022/11/09 04:31:07;;;;;;;96.10;14.47;;;;;;;;;;5094842;28;21025;-70
2022/11/09 04:33:34;;;;;;;56.43;8.73;;;;;;;;;;5094388;28;20447;-70
2022/11/09 04:36:05;;;;;;;60.83;11.30;;;;;;;;;;5094763;28;20470;-70
2022/11/09 04:38:35;;;;;;;41.60;9.40;;;;;;;;;;5092183;28;20458;-70
2022/11/09 04:41:02;;;;;;;87.20;11.70;;;;;;;;;;5092768;28;20504;-69
2022/11/09 04:43:29;;;;;;;70.13;11.57;;;;;;;;;;5092983;28;20474;-69
2022/11/09 04:45:59;;;;;;;106.57;13.83;;;;;;;;;;5092859;28;20471;-69
2022/11/09 04:48:26;;;;;;;29.20;9.27;;;;;;;;;;5094474;28;20435;-69
2022/11/09 04:50:53;;;;;;;18.43;8.00;;;;;;;;;;5094365;28;20497;-70
2022/11/09 04:53:21;;;;;;;22.63;8.03;;;;;;;;;;5094408;28;20454;-69
2022/11/09 04:55:49;;;;;;;10.90;7.57;;;;;;;;;;5094006;28;20463;-70
2022/11/09 04:58:16;;;;;;;14.90;6.40;;;;;;;;;;5094288;28;20968;-70
2022/11/09 05:00:43;;;;;;;34.83;9.00;;;;;;;;;;5094207;28;20446;-70
2022/11/09 05:03:11;;;;;;;18.07;8.37;;;;;;;;;;5094450;28;20909;-70
2022/11/09 05:05:38;;;;;;;25.67;8.07;;;;;;;;;;5093287;28;20459;-70
2022/11/09 05:08:06;;;;;;;11.37;8.10;;;;;;;;;;5093827;28;20451;-70
2022/11/09 05:10:34;;;;;;;10.70;8.00;;;;;;;;;;5094021;28;21025;-70
2022/11/09 05:13:03;;;;;;;11.10;7.50;;;;;;;;;;5094099;28;20447;-70
2022/11/09 05:15:31;;;;;;;10.83;7.90;;;;;;;;;;5093550;28;20533;-70
2022/11/09 05:17:58;;;;;;;18.27;7.17;;;;;;;;;;5092389;28;20450;-70
2022/11/09 05:20:25;;;;;;;14.63;8.67;;;;;;;;;;5093623;28;20437;-70
2022/11/09 05:25:39;;;;;;;11.83;8.83;;;;;;;;;;5093069;28;20445;-70
2022/11/09 05:28:07;;;;;;;15.87;10.47;;;;;;;;;;5093837;28;20449;-70
2022/11/09 05:30:35;;;;;;;59.90;12.43;;;;;;;;;;5093311;28;20462;-70
2022/11/09 05:33:02;;;;;;;38.23;8.63;;;;;;;;;;5093452;28;20439;-69
2022/11/09 05:35:29;;;;;;;70.20;10.80;;;;;;;;;;5092782;28;20446;-69
2022/11/09 05:37:56;;;;;;;77.13;13.30;;;;;;;;;;5091442;28;20439;-69
2022/11/09 05:40:23;;;;;;;33.40;12.33;;;;;;;;;;5093671;28;20442;-70
2022/11/09 05:42:50;;;;;;;24.80;9.93;;;;;;;;;;5092371;28;20800;-70
2022/11/09 05:45:20;;;;;;;87.40;16.50;;;;;;;;;;5092753;28;20430;-70
2022/11/09 05:47:47;;;;;;;75.33;17.13;;;;;;;;;;5093664;28;20435;-69
2022/11/09 05:50:16;;;;;;;82.33;12.50;;;;;;;;;;5092933;28;20481;-70
2022/11/09 05:52:43;;;;;;;118.63;14.40;;;;;;;;;;5091445;28;20479;-69
2022/11/09 05:55:10;;;;;;;79.37;14.60;;;;;;;;;;5092858;28;20796;-69
2022/11/09 05:57:38;;;;;;;188.47;19.10;;;;;;;;;;5088772;28;20470;-69
2022/11/09 06:00:06;;;;;;;263.43;21.70;;;;;;;;;;5091868;28;20449;-69
2022/11/09 06:02:34;;;;;;;107.27;13.53;;;;;;;;;;5092628;28;21254;-69
2022/11/09 06:05:02;;;;;;;62.03;13.93;;;;;;;;;;5092442;28;20952;-69
2022/11/09 06:07:29;;;;;;;206.83;18.30;;;;;;;;;;5092827;28;20998;-70
2022/11/09 06:09:56;;;;;;;73.80;13.13;;;;;;;;;;5092789;28;20479;-70
2022/11/09 06:12:23;;;;;;;91.27;12.93;;;;;;;;;;5092871;28;20447;-70
2022/11/09 06:14:50;;;;;;;138.30;18.83;;;;;;;;;;5092091;28;20960;-70
2022/11/09 06:17:17;;;;;;;91.47;13.33;;;;;;;;;;5092325;28;20474;-69
2022/11/09 06:19:46;;;;;;;89.37;13.93;;;;;;;;;;5092509;28;20451;-70
2022/11/09 06:22:13;;;;;;;43.47;12.40;;;;;;;;;;5092575;28;20452;-70
2022/11/09 06:24:40;;;;;;;36.53;13.23;;;;;;;;;;5091627;28;20454;-70
2022/11/09 06:27:07;;;;;;;58.90;14.13;;;;;;;;;;5091101;28;20466;-69
2022/11/09 06:29:35;;;;;;;30.97;14.33;;;;;;;;;;5091929;28;20444;-69
2022/11/09 06:32:02;;;;;;;61.07;14.97;;;;;;;;;;5090971;28;20821;-69
2022/11/09 06:34:29;;;;;;;152.40;53.03;;;;;;;;;;5092002;28;20922;-69
2022/11/09 06:36:58;;;;;;;113.70;31.23;;;;;;;;;;5090993;28;21028;-70
2022/11/09 06:39:25;;;;;;;68.43;13.77;;;;;;;;;;5091997;28;20805;-70
2022/11/09 06:41:53;;;;;;;54.13;13.33;;;;;;;;;;5091576;28;20427;-70
2022/11/09 06:44:20;;;;;;;80.40;12.90;;;;;;;;;;5091574;28;20537;-70
2022/11/09 06:46:47;;;;;;;126.07;16.90;;;;;;;;;;5091908;28;20475;-70
2022/11/09 06:49:14;;;;;;;60.63;12.93;;;;;;;;;;5092134;28;21070;-70
2022/11/09 06:51:41;;;;;;;100.37;16.00;;;;;;;;;;5092100;28;20482;-70
2022/11/09 06:54:10;;;;;;;82.07;13.60;;;;;;;;;;5091822;28;20453;-70
2022/11/09 06:56:37;;;;;;;145.43;21.67;;;;;;;;;;5092272;28;20466;-70
2022/11/09 06:59:04;;;;;;;84.33;13.07;;;;;;;;;;5091764;28;20461;-70
2022/11/09 07:01:31;;;;;;;61.53;11.80;;;;;;;;;;5090298;28;20442;-70
2022/11/09 07:03:59;;;;;;;111.20;14.80;;;;;;;;;;5091538;28;20466;-70
2022/11/09 07:06:26;;;;;;;140.80;15.70;;;;;;;;;;5092213;28;20481;-70
2022/11/09 07:08:55;;;;;;;51.87;8.60;;;;;;;;;;5091919;28;20445;-70
2022/11/09 07:11:24;;;;;;;65.73;13.23;;;;;;;;;;5091889;28;20535;-70
2022/11/09 07:13:51;;;;;;;37.37;7.23;;;;;;;;;;5091172;28;20469;-70
2022/11/09 07:16:18;;;;;;;12.70;5.77;;;;;;;;;;5092009;28;20481;-70
2022/11/09 07:18:45;;;;;;;7.83;6.13;;;;;;;;;;5089031;28;20455;-70
2022/11/09 07:21:13;;;;;;;11.90;6.63;;;;;;;;;;5092186;28;20431;-70
2022/11/09 07:23:40;;;;;;;14.00;6.27;;;;;;;;;;5091819;28;20446;-70
2022/11/09 07:26:07;;;;;;;7.07;4.93;;;;;;;;;;5091639;28;20466;-70
2022/11/09 07:28:36;;;;;;;13.83;6.83;;;;;;;;;;5091616;28;20453;-70
2022/11/09 07:31:03;;;;;;;8.53;6.60;;;;;;;;;;5091749;28;20611;-70
2022/11/09 07:33:32;;;;;;;13.77;7.50;;;;;;;;;;5091618;28;20966;-70
2022/11/09 07:36:00;;;;;;;26.13;12.50;;;;;;;;;;5091587;28;20859;-70
2022/11/09 07:38:27;;;;;;;6.73;5.43;;;;;;;;;;5091768;28;20982;-70
2022/11/09 07:40:54;;;;;;;7.33;5.37;;;;;;;;;;5091662;28;20443;-70
2022/11/09 07:43:21;;;;;;;9.53;6.00;;;;;;;;;;5094849;28;20446;-70
2022/11/09 07:45:50;;;;;;;10.60;6.87;;;;;;;;;;5095148;28;20474;-70
2022/11/09 07:48:17;;;;;;;6.17;5.30;;;;;;;;;;5094840;28;20450;-70
2022/11/09 07:50:44;;;;;;;6.83;6.13;;;;;;;;;;5095505;28;20813;-70
2022/11/09 07:53:12;;;;;;;5.17;4.67;;;;;;;;;;5095443;28;20453;-70
2022/11/09 07:55:39;;;;;;;7.13;5.80;;;;;;;;;;5091188;28;20474;-70
2022/11/09 07:58:07;;;;;;;7.33;5.73;;;;;;;;;;5074836;28;20546;-70
2022/11/09 08:00:35;;;;;;;6.47;5.63;;;;;;;;;;5074687;28;20448;-70
2022/11/09 08:03:04;;;;;;;8.07;6.07;;;;;;;;;;5074749;28;20945;-70
2022/11/09 08:05:31;;;;;;;5.93;4.60;;;;;;;;;;5073998;28;20458;-71
2022/11/09 08:07:59;;;;;;;7.10;4.90;;;;;;;;;;5074635;28;20775;-70
2022/11/09 08:10:26;;;;;;;11.57;5.73;;;;;;;;;;5074468;28;20483;-70
2022/11/09 08:12:54;;;;;;;10.23;5.80;;;;;;;;;;5082106;28;20519;-70
2022/11/09 08:15:21;;;;;;;5.10;4.60;;;;;;;;;;5093619;28;20887;-70
2022/11/09 08:17:48;;;;;;;6.07;5.30;;;;;;;;;;5094795;28;20451;-70
2022/11/09 08:20:18;;;;;;;5.50;5.00;;;;;;;;;;5094863;28;20450;-70
2022/11/09 08:22:46;;;;;;;8.50;4.97;;;;;;;;;;5094719;28;20451;-71
2022/11/09 08:25:13;;;;;;;4.30;3.90;;;;;;;;;;5079802;28;20826;-70
2022/11/09 08:27:41;;;;;;;4.50;4.10;;;;;;;;;;5073080;28;20478;-70
2022/11/09 08:30:09;;;;;;;4.73;4.33;;;;;;;;;;5073244;28;20459;-70
2022/11/09 08:32:36;;;;;;;8.20;5.33;;;;;;;;;;5072976;28;20448;-70
2022/11/09 08:35:03;;;;;;;11.30;5.70;;;;;;;;;;5072846;28;20462;-70
2022/11/09 08:37:34;;;;;;;5.83;4.97;;;;;;;;;;5074359;28;20467;-71
2022/11/09 08:40:01;;;;;;;12.67;5.73;;;;;;;;;;5073761;28;20450;-70
2022/11/09 08:42:28;;;;;;;11.10;6.80;;;;;;;;;;5073423;28;20451;-70
2022/11/09 08:44:55;;;;;;;9.67;4.33;;;;;;;;;;5074167;28;20450;-70
2022/11/09 08:47:23;;;;;;;8.20;5.10;;;;;;;;;;5074008;28;20475;-70
2022/11/09 08:49:50;;;;;;;7.20;6.40;;;;;;;;;;5073930;28;20494;-70
2022/11/09 08:52:17;;;;;;;18.97;15.87;;;;;;;;;;5074110;28;20483;-70
2022/11/09 08:54:46;;;;;;;8.70;7.63;;;;;;;;;;5086609;28;20505;-70
2022/11/09 08:57:13;;;;;;;9.50;8.60;;;;;;;;;;5094478;28;20844;-70
2022/11/09 08:59:40;;;;;;;9.23;7.73;;;;;;;;;;5094007;28;20450;-70
2022/11/09 09:02:07;;;;;;;11.97;10.90;;;;;;;;;;5094060;28;20454;-70
2022/11/09 09:04:34;;;;;;;10.00;8.03;;;;;;;;;;5093606;28;20459;-70
2022/11/09 09:07:02;;;;;;;8.77;7.77;;;;;;;;;;5094050;28;20849;-70
2022/11/09 09:09:29;;;;;;;8.43;7.40;;;;;;;;;;5093972;28;20451;-70
2022/11/09 09:11:57;;;;;;;11.00;8.90;;;;;;;;;;5093775;28;20512;-70
2022/11/09 09:14:25;;;;;;;11.63;8.80;;;;;;;;;;5093450;28;20466;-70
2022/11/09 09:16:52;;;;;;;13.80;10.17;;;;;;;;;;5094093;28;20504;-70
2022/11/09 09:19:19;;;;;;;11.37;8.90;;;;;;;;;;5093896;28;20457;-70
2022/11/09 09:21:46;;;;;;;10.53;8.50;;;;;;;;;;5093295;28;20455;-70
2022/11/09 09:24:13;;;;;;;13.37;9.40;;;;;;;;;;5093599;28;20457;-70
2022/11/09 09:26:40;;;;;;;9.70;7.83;;;;;;;;;;5093664;28;20471;-70
2022/11/09 09:29:10;;;;;;;12.60;9.50;;;;;;;;;;5093963;28;20896;-70
2022/11/09 09:31:37;;;;;;;7.43;6.63;;;;;;;;;;5093513;28;20506;-70
2022/11/09 09:34:04;;;;;;;8.73;7.93;;;;;;;;;;5093056;28;20446;-70
2022/11/09 09:36:32;;;;;;;8.83;7.43;;;;;;;;;;5093367;28;20584;-70
2022/11/09 09:38:59;;;;;;;18.77;9.13;;;;;;;;;;5093719;28;20922;-70
2022/11/09 09:41:28;;;;;;;14.43;9.30;;;;;;;;;;5093560;28;20443;-70
2022/11/09 09:43:57;;;;;;;12.60;10.33;;;;;;;;;;5093271;28;20454;-70
2022/11/09 09:46:30;;;;;;;15.30;11.43;;;;;;;;;;5093321;28;20470;-71
2022/11/09 09:48:59;;;;;;;17.03;12.47;;;;;;;;;;5093555;28;20439;-70
2022/11/09 09:51:30;;;;;;;15.20;12.30;;;;;;;;;;5093293;28;20862;-70
2022/11/09 09:54:00;;;;;;;15.07;12.63;;;;;;;;;;5092830;28;20451;-70
2022/11/09 09:56:29;;;;;;;14.07;11.10;;;;;;;;;;5092949;28;20489;-70
2022/11/09 09:58:58;;;;;;;13.07;11.17;;;;;;;;;;5093474;28;20806;-70
2022/11/09 10:01:29;;;;;;;15.03;11.17;;;;;;;;;;5092936;28;20539;-70
2022/11/09 10:03:57;;;;;;;15.30;12.13;;;;;;;;;;5092630;28;20457;-70
2022/11/09 10:06:32;;;;;;;11.57;9.90;;;;;;;;;;5092534;28;20920;-71
2022/11/09 10:09:03;;;;;;;13.50;11.20;;;;;;;;;;5092685;28;20430;-71
2022/11/09 10:11:34;;;;;;;11.90;10.50;;;;;;;;;;5091631;28;20486;-71
2022/11/09 10:14:10;;;;;;;14.47;11.20;;;;;;;;;;5076324;28;20462;-70
2022/11/09 10:16:41;;;;;;;11.73;10.40;;;;;;;;;;5088915;28;20841;-70
2022/11/09 10:19:20;;;;;;;12.80;11.10;;;;;;;;;;5090969;28;20461;-71
2022/11/09 10:21:49;;;;;;;10.97;9.80;;;;;;;;;;5090694;28;20454;-71
2022/11/09 10:24:24;;;;;;;10.10;8.50;;;;;;;;;;5090778;28;20458;-70
2022/11/09 10:26:52;;;;;;;9.73;8.10;;;;;;;;;;5091116;28;20476;-70
2022/11/09 10:29:22;;;;;;;10.60;9.50;;;;;;;;;;5090850;28;20947;-71
2022/11/09 10:31:51;;;;;;;9.97;8.70;;;;;;;;;;5091189;28;20515;-71
2022/11/09 10:34:19;;;;;;;9.37;8.20;;;;;;;;;;5090707;28;20446;-71
2022/11/09 10:36:50;;;;;;;9.37;8.40;;;;;;;;;;5090652;28;21014;-71
2022/11/09 10:39:17;;;;;;;9.03;8.13;;;;;;;;;;5090917;28;20453;-71
2022/11/09 10:41:46;;;;;;;9.50;8.50;;;;;;;;;;5090889;28;20442;-71
2022/11/09 10:44:14;;;;;;;12.87;8.17;;;;;;;;;;5090086;28;20447;-71
2022/11/09 10:46:56;;;;;;;10.00;8.53;;;;;;;;;;5089842;28;20474;-71
2022/11/09 10:49:24;;;;;;;9.13;8.20;;;;;;;;;;5090433;28;20447;-71
2022/11/09 10:51:52;;;;;;;9.30;7.97;;;;;;;;;;5090837;28;20487;-71
2022/11/09 10:54:20;;;;;;;15.00;10.83;;;;;;;;;;5090647;28;20453;-71
2022/11/09 10:56:49;;;;;;;9.93;8.87;;;;;;;;;;5090428;28;20466;-72
2022/11/09 10:59:37;;;;;;;10.60;9.10;;;;;;;;;;5090164;28;20533;-71
2022/11/09 11:02:25;;;;;;;13.90;9.50;;;;;;;;;;5092187;28;20977;-71
2022/11/09 11:05:13;;;;;;;9.70;8.50;;;;;;;;;;5090957;28;20454;-71
2022/11/09 11:07:40;;;;;;;7.97;7.17;;;;;;;;;;5092206;28;20470;-70
2022/11/09 11:10:11;;;;;;;10.30;9.20;;;;;;;;;;5092290;28;20955;-71
2022/11/09 11:12:38;;;;;;;12.20;10.10;;;;;;;;;;5092138;28;20921;-71
2022/11/09 11:15:15;;;;;;;10.10;8.37;;;;;;;;;;5091722;28;20466;-71
2022/11/09 11:17:42;;;;;;;12.23;8.87;;;;;;;;;;5095025;28;20473;-71
2022/11/09 11:20:24;;;;;;;14.10;11.37;;;;;;;;;;5096185;28;20451;-71
2022/11/09 11:23:06;;;;;;;13.23;8.10;;;;;;;;;;5096019;28;20522;-71
2022/11/09 11:25:33;;;;;;;9.33;7.47;;;;;;;;;;5095561;28;20435;-71
2022/11/09 11:28:03;;;;;;;8.10;7.30;;;;;;;;;;5095808;28;20450;-71
2022/11/09 11:30:35;;;;;;;8.53;7.17;;;;;;;;;;5096211;28;20815;-71
2022/11/09 11:33:02;;;;;;;8.90;6.83;;;;;;;;;;5095944;28;20807;-71
2022/11/09 11:35:31;;;;;;;7.93;6.53;;;;;;;;;;5095171;28;20450;-71
2022/11/09 11:38:05;;;;;;;9.10;8.20;;;;;;;;;;5096013;28;20520;-71
2022/11/09 11:40:34;;;;;;;10.70;8.23;;;;;;;;;;5095435;28;20451;-71
2022/11/09 11:43:07;;;;;;;9.40;7.67;;;;;;;;;;5095884;28;20443;-71
2022/11/09 11:45:38;;;;;;;10.00;8.13;;;;;;;;;;5095082;28;20450;-71
2022/11/09 11:48:24;;;;;;;11.93;9.40;;;;;;;;;;5095862;28;20458;-71
2022/11/09 11:50:54;;;;;;;12.33;8.07;;;;;;;;;;5095382;28;20450;-71
2022/11/09 11:53:32;;;;;;;13.67;8.90;;;;;;;;;;5095443;28;20486;-71
2022/11/09 11:56:17;;;;;;;14.67;9.23;;;;;;;;;;5095657;28;20552;-71
2022/11/09 11:59:03;;;;;;;12.50;8.90;;;;;;;;;;5095756;28;20777;-71
2022/11/09 12:01:36;;;;;;;9.53;8.20;;;;;;;;;;5095712;28;20825;-71
2022/11/09 12:04:12;;;;;;;11.37;8.30;;;;;;;;;;5095210;28;20929;-71
2022/11/09 12:06:45;;;;;;;19.00;8.20;;;;;;;;;;5095064;28;20466;-71
2022/11/09 12:09:22;;;;;;;8.67;7.47;;;;;;;;;;5095254;28;20477;-71
2022/11/09 12:11:54;;;;;;;8.63;7.43;;;;;;;;;;5095228;28;20562;-72
2022/11/09 12:14:27;;;;;;;9.27;7.20;;;;;;;;;;5094695;28;20466;-73
2022/11/09 12:16:59;;;;;;;13.00;8.50;;;;;;;;;;5094862;28;20497;-71
2022/11/09 12:19:40;;;;;;;12.63;8.80;;;;;;;;;;5095441;28;20549;-72
2022/11/09 12:22:10;;;;;;;16.10;10.50;;;;;;;;;;5095289;28;20435;-72
2022/11/09 12:24:44;;;;;;;12.17;8.63;;;;;;;;;;5094835;28;20905;-72
2022/11/09 12:27:25;;;;;;;13.67;10.13;;;;;;;;;;5094596;28;20478;-72
2022/11/09 12:29:57;;;;;;;11.53;9.57;;;;;;;;;;5094410;28;20449;-72
2022/11/09 12:32:28;;;;;;;12.43;9.70;;;;;;;;;;5095066;28;20980;-70
2022/11/09 12:34:58;;;;;;;114.70;42.63;;;;;;;;;;5094278;28;20435;-70
2022/11/09 12:37:27;;;;;;;17.20;10.20;;;;;;;;;;5094031;28;20471;-72
2022/11/09 12:40:01;;;;;;;38.80;20.03;;;;;;;;;;5094483;28;20484;-70
2022/11/09 12:42:32;;;;;;;29.70;17.80;;;;;;;;;;5093494;28;20461;-70
2022/11/09 12:45:04;;;;;;;17.13;12.93;;;;;;;;;;5094132;28;20431;-72
2022/11/09 12:47:32;;;;;;;11.80;9.80;;;;;;;;;;5094364;28;20837;-72
2022/11/09 12:49:59;;;;;;;12.30;10.20;;;;;;;;;;5094654;28;20462;-71
2022/11/09 12:52:28;;;;;;;13.90;10.83;;;;;;;;;;5094432;28;20794;-70
2022/11/09 12:54:58;;;;;;;19.30;14.03;;;;;;;;;;5094276;28;20545;-70
2022/11/09 12:57:26;;;;;;;12.70;9.60;;;;;;;;;;5094123;28;20471;-70
2022/11/09 12:59:54;;;;;;;14.30;9.63;;;;;;;;;;5094443;28;21246;-70
2022/11/09 13:02:24;;;;;;;12.37;9.33;;;;;;;;;;5094514;28;20449;-70
2022/11/09 13:05:00;;;;;;;19.20;10.40;;;;;;;;;;5093740;28;20882;-70
2022/11/09 13:07:41;;;;;;;18.17;8.63;;;;;;;;;;5093886;28;20564;-70
2022/11/09 13:10:23;;;;;;;12.13;8.50;;;;;;;;;;5094036;28;20474;-70
2022/11/09 13:12:50;;;;;;;13.50;8.77;;;;;;;;;;5092128;28;20470;-72
2022/11/09 13:15:24;;;;;;;17.57;11.10;;;;;;;;;;5093585;28;20474;-70
2022/11/09 13:17:54;;;;;;;12.53;8.60;;;;;;;;;;5092408;28;20442;-70
2022/11/09 13:20:42;;;;;;;10.93;8.63;;;;;;;;;;5093418;28;20447;-70
2022/11/09 13:23:26;;;;;;;10.57;7.63;;;;;;;;;;5094161;28;20441;-70
2022/11/09 13:25:56;;;;;;;8.80;7.33;;;;;;;;;;5093341;28;20549;-70
2022/11/09 13:28:45;;;;;;;9.03;7.53;;;;;;;;;;5093841;28;20447;-70
2022/11/09 13:31:12;;;;;;;10.17;7.53;;;;;;;;;;5093839;28;20819;-70
2022/11/09 13:33:39;;;;;;;9.53;7.10;;;;;;;;;;5093433;28;20833;-70
2022/11/09 13:36:17;;;;;;;21.50;11.90;;;;;;;;;;5093401;28;20462;-70
2022/11/09 13:38:44;;;;;;;18.53;11.40;;;;;;;;;;5092588;28;20453;-70
2022/11/09 13:41:30;;;;;;;22.97;12.67;;;;;;;;;;5093360;28;20445;-70
2022/11/09 13:44:13;;;;;;;19.67;11.90;;;;;;;;;;5093343;28;20475;-70
2022/11/09 13:46:40;;;;;;;14.90;9.80;;;;;;;;;;5092181;28;20502;-70
2022/11/09 13:49:22;;;;;;;12.83;9.10;;;;;;;;;;5093713;28;20478;-70
2022/11/09 13:51:50;;;;;;;10.67;8.00;;;;;;;;;;5091293;28;20461;-70
2022/11/09 13:54:30;;;;;;;10.73;7.90;;;;;;;;;;5093363;28;20423;-70
2022/11/09 13:56:57;;;;;;;7.83;7.03;;;;;;;;;;5093063;28;21004;-70
2022/11/09 13:59:28;;;;;;;9.20;6.57;;;;;;;;;;5093253;28;20449;-70
2022/11/09 14:01:56;;;;;;;14.80;7.87;;;;;;;;;;5093027;28;20552;-70
2022/11/09 14:04:25;;;;;;;14.80;9.33;;;;;;;;;;5092733;28;20451;-70
2022/11/09 14:06:56;;;;;;;11.30;8.17;;;;;;;;;;5092898;28;20479;-70
2022/11/09 14:09:23;;;;;;;144.57;65.33;;;;;;;;;;5092863;28;20449;-70
2022/11/09 14:12:14;;;;;;;164.93;68.60;;;;;;;;;;5092904;28;20468;-70
2022/11/09 14:15:01;;;;;;;178.40;88.37;;;;;;;;;;5077133;28;20513;-70
2022/11/09 14:17:31;;;;;;;144.50;67.80;;;;;;;;;;5092691;28;20637;-70
2022/11/09 14:20:09;;;;;;;14.53;9.47;;;;;;;;;;5092661;28;20443;-70
2022/11/09 14:22:36;;;;;;;134.20;71.00;;;;;;;;;;5091506;28;20431;-70
2022/11/09 14:25:13;;;;;;;51.53;34.40;;;;;;;;;;5075053;28;20447;-70
2022/11/09 14:27:46;;;;;;;60.83;37.83;;;;;;;;;;5070829;28;20492;-70
2022/11/09 14:30:18;;;;;;;41.37;30.50;;;;;;;;;;5072350;28;20459;-70
2022/11/09 14:32:48;;;;;;;15.03;13.30;;;;;;;;;;5072490;28;20515;-70
2022/11/09 14:35:20;;;;;;;22.90;8.43;;;;;;;;;;5072311;28;20565;-70
2022/11/09 14:37:48;;;;;;;13.93;6.87;;;;;;;;;;5070820;28;20800;-70